createdAt,value
2022-11-03T00:02:22.578Z,21.30
2022-11-03T00:04:51.234Z,20.75
2022-11-03T00:07:23.559Z,20.48
2022-11-03T00:09:51.954Z,22.50
2022-11-03T00:12:19.310Z,20.52
2022-11-03T00:14:48.406Z,23.33
2022-11-03T00:17:16.915Z,19.37
2022-11-03T00:19:44.226Z,22.62
2022-11-03T00:22:12.553Z,21.35
2022-11-03T00:24:41.745Z,21.85
2022-11-03T00:27:09.087Z,17.98
2022-11-03T00:29:37.318Z,20.23
2022-11-03T00:32:05.939Z,22.75
2022-11-03T00:34:33.702Z,19.67
2022-11-03T00:37:01.537Z,20.37
2022-11-03T00:39:30.065Z,19.85
2022-11-03T00:41:58.699Z,16.52
2022-11-03T00:44:27.450Z,15.82
2022-11-03T00:46:55.620Z,16.12
2022-11-03T00:49:23.380Z,17.17
2022-11-03T00:51:51.192Z,17.00
2022-11-03T00:54:20.590Z,13.70
2022-11-03T00:56:49.705Z,19.12
2022-11-03T00:59:18.276Z,12.98
2022-11-03T01:01:47.930Z,17.05
2022-11-03T01:04:36.511Z,15.27
2022-11-03T01:07:06.396Z,16.90
2022-11-03T01:09:41.896Z,17.83
2022-11-03T01:12:15.861Z,12.20
2022-11-03T01:14:49.049Z,11.77
2022-11-03T01:17:25.405Z,12.60
2022-11-03T01:19:54.750Z,10.00
2022-11-03T01:22:23.549Z,10.77
2022-11-03T01:24:54.568Z,10.38
2022-11-03T01:27:23.473Z,13.52
2022-11-03T01:29:51.523Z,8.50
2022-11-03T01:32:19.671Z,9.38
2022-11-03T01:34:48.537Z,8.93
2022-11-03T01:37:16.645Z,15.77
2022-11-03T01:39:44.889Z,11.90
2022-11-03T01:42:14.620Z,9.25
2022-11-03T01:44:48.893Z,11.10
2022-11-03T01:47:29.377Z,6.97
2022-11-03T01:50:19.626Z,8.55
2022-11-03T01:52:55.696Z,8.00
2022-11-03T01:55:28.473Z,9.82
2022-11-03T01:58:04.565Z,7.68
2022-11-03T02:00:34.762Z,8.27
2022-11-03T02:03:04.511Z,9.68
2022-11-03T02:05:34.204Z,8.52
2022-11-03T02:10:42.803Z,8.38
2022-11-03T02:13:20.654Z,8.40
2022-11-03T02:15:50.488Z,10.43
2022-11-03T02:18:23.859Z,8.60
2022-11-03T02:21:18.083Z,7.15
2022-11-03T02:24:16.141Z,7.57
2022-11-03T02:26:48.676Z,10.77
2022-11-03T02:29:19.070Z,13.30
2022-11-03T02:31:59.545Z,9.32
2022-11-03T02:35:01.274Z,13.65
2022-11-03T02:37:35.792Z,9.00
2022-11-03T02:40:07.997Z,11.88
2022-11-03T02:42:37.105Z,10.13
2022-11-03T02:45:13.325Z,11.30
2022-11-03T02:47:45.577Z,13.10
2022-11-03T02:50:13.865Z,9.93
2022-11-03T02:52:47.390Z,10.68
2022-11-03T02:55:23.583Z,11.82
2022-11-03T02:58:06.170Z,10.52
2022-11-03T03:01:02.363Z,10.05
2022-11-03T03:03:38.922Z,10.68
2022-11-03T03:06:11.270Z,10.48
2022-11-03T03:08:43.684Z,11.55
2022-11-03T03:11:14.806Z,10.05
2022-11-03T03:13:44.811Z,8.93
2022-11-03T03:16:36.028Z,13.30
2022-11-03T03:19:16.455Z,11.60
2022-11-03T03:21:46.612Z,10.93
2022-11-03T03:24:37.648Z,10.18
2022-11-03T03:27:11.121Z,13.40
2022-11-03T03:29:59.497Z,10.75
2022-11-03T03:32:29.163Z,11.52
2022-11-03T03:34:57.835Z,11.65
2022-11-03T03:37:26.848Z,9.25
2022-11-03T03:40:01.357Z,11.68
2022-11-03T03:45:00.605Z,11.30
2022-11-03T03:47:33.325Z,13.18
2022-11-03T03:50:01.792Z,12.13
2022-11-03T03:52:30.212Z,11.00
2022-11-03T03:54:57.784Z,9.60
2022-11-03T03:57:28.767Z,15.35
2022-11-03T03:59:58.134Z,13.07
2022-11-03T04:02:25.842Z,9.65
2022-11-03T04:04:53.996Z,11.68
2022-11-03T04:07:43.814Z,15.85
2022-11-03T04:10:11.644Z,11.25
2022-11-03T04:13:16.921Z,12.00
2022-11-03T04:16:04.131Z,14.07
2022-11-03T04:18:50.855Z,15.32
2022-11-03T04:21:37.653Z,15.35
2022-11-03T04:24:06.498Z,11.75
2022-11-03T04:26:34.786Z,13.10
2022-11-03T04:29:02.356Z,14.45
2022-11-03T04:31:31.687Z,12.82
2022-11-03T04:33:59.768Z,13.52
2022-11-03T04:36:28.101Z,14.38
2022-11-03T04:38:56.659Z,12.80
2022-11-03T04:41:30.548Z,16.87
2022-11-03T04:43:58.833Z,13.43
2022-11-03T04:46:29.128Z,14.00
2022-11-03T04:49:00.098Z,16.27
2022-11-03T04:51:31.822Z,16.23
2022-11-03T04:54:11.907Z,16.83
2022-11-03T04:56:41.463Z,16.40
2022-11-03T04:59:14.032Z,14.23
2022-11-03T05:01:44.308Z,17.80
2022-11-03T05:04:15.020Z,17.62
2022-11-03T05:07:03.555Z,13.40
2022-11-03T05:09:32.033Z,14.70
2022-11-03T05:12:01.075Z,14.55
2022-11-03T05:14:30.339Z,13.52
2022-11-03T05:16:58.807Z,15.18
2022-11-03T05:19:39.454Z,12.90
2022-11-03T05:22:15.089Z,14.63
2022-11-03T05:24:42.734Z,13.40
2022-11-03T05:27:19.684Z,17.17
2022-11-03T05:29:48.809Z,16.33
2022-11-03T05:32:25.120Z,14.00
2022-11-03T05:34:55.894Z,16.65
2022-11-03T05:37:26.742Z,17.15
2022-11-03T05:39:59.031Z,15.15
2022-11-03T05:42:41.822Z,15.45
2022-11-03T05:45:23.763Z,15.68
2022-11-03T05:47:55.246Z,14.85
2022-11-03T05:50:26.574Z,15.80
2022-11-03T05:53:16.979Z,14.80
2022-11-03T05:55:45.382Z,13.07
2022-11-03T05:58:24.303Z,12.75
2022-11-03T06:00:54.219Z,14.00
2022-11-03T06:03:29.404Z,14.82
2022-11-03T06:08:34.179Z,13.43
2022-11-03T06:11:05.373Z,15.27
2022-11-03T06:13:37.354Z,50.47
2022-11-03T06:16:38.301Z,25.67
2022-11-03T06:19:20.343Z,22.25
2022-11-03T06:21:50.639Z,17.50
2022-11-03T06:24:22.465Z,12.50
2022-11-03T06:26:53.379Z,13.30
2022-11-03T06:29:22.786Z,15.05
2022-11-03T06:31:55.304Z,14.40
2022-11-03T06:34:44.199Z,12.27
2022-11-03T06:37:27.511Z,12.65
2022-11-03T06:39:59.624Z,10.95
2022-11-03T06:42:32.367Z,12.55
2022-11-03T06:45:04.245Z,15.25
2022-11-03T06:47:33.177Z,13.07
2022-11-03T06:50:01.664Z,16.33
2022-11-03T06:52:32.403Z,12.05
2022-11-03T06:55:16.742Z,12.70
2022-11-03T06:57:48.345Z,12.50
2022-11-03T07:00:40.420Z,12.77
2022-11-03T07:03:33.788Z,13.35
2022-11-03T07:06:14.314Z,13.68
2022-11-03T07:08:47.230Z,13.20
2022-11-03T07:11:20.577Z,11.30
2022-11-03T07:13:54.611Z,13.38
2022-11-03T07:16:38.665Z,14.18
2022-11-03T07:19:23.232Z,13.45
2022-11-03T07:21:54.172Z,14.87
2022-11-03T07:24:27.432Z,13.68
2022-11-03T07:27:20.924Z,12.45
2022-11-03T07:29:50.990Z,12.45
2022-11-03T07:32:31.455Z,13.45
2022-11-03T07:35:18.847Z,15.32
2022-11-03T07:37:48.004Z,14.90
2022-11-03T07:40:23.986Z,12.13
2022-11-03T07:42:58.997Z,18.83
2022-11-03T07:45:53.222Z,21.48
2022-11-03T07:48:25.086Z,18.65
2022-11-03T07:50:56.728Z,20.52
2022-11-03T07:53:36.395Z,22.62
2022-11-03T07:56:21.450Z,20.58
2022-11-03T07:58:56.974Z,24.45
2022-11-03T08:01:32.811Z,24.45
2022-11-03T08:04:06.189Z,24.92
2022-11-03T08:06:33.655Z,27.27
2022-11-03T08:09:02.062Z,29.42
2022-11-03T08:11:30.858Z,27.42
2022-11-03T08:14:00.179Z,31.50
2022-11-03T08:16:30.721Z,29.87
2022-11-03T08:19:00.519Z,30.95
2022-11-03T08:21:30.489Z,29.27
2022-11-03T08:24:00.415Z,32.67
2022-11-03T08:26:29.502Z,32.20
2022-11-03T08:28:56.946Z,29.05
2022-11-03T08:31:25.031Z,33.75
2022-11-03T08:33:55.234Z,32.00
2022-11-03T08:36:26.005Z,31.70
2022-11-03T08:38:55.546Z,32.45
2022-11-03T08:41:23.835Z,30.27
2022-11-03T08:43:52.144Z,31.48
2022-11-03T08:46:22.002Z,28.35
2022-11-03T08:48:52.097Z,32.22
2022-11-03T08:51:22.540Z,28.67
2022-11-03T08:53:54.010Z,32.55
2022-11-03T08:56:22.875Z,33.95
2022-11-03T08:58:56.416Z,33.92
2022-11-03T09:01:26.183Z,35.95
2022-11-03T09:03:55.042Z,34.47
2022-11-03T09:06:24.390Z,33.72
2022-11-03T09:11:44.303Z,31.45
2022-11-03T09:14:23.188Z,31.52
2022-11-03T09:16:51.904Z,35.28
2022-11-03T09:19:20.970Z,43.53
2022-11-03T09:21:49.989Z,37.58
2022-11-03T09:24:19.549Z,33.25
2022-11-03T09:26:51.904Z,35.70
2022-11-03T09:29:21.151Z,31.05
2022-11-03T09:31:50.500Z,35.65
2022-11-03T09:34:19.252Z,33.30
2022-11-03T09:36:52.137Z,34.42
2022-11-03T09:39:22.661Z,33.42
2022-11-03T09:41:58.465Z,35.47
2022-11-03T09:44:27.928Z,37.42
2022-11-03T09:46:58.472Z,45.30
2022-11-03T09:49:28.900Z,38.60
2022-11-03T09:51:57.818Z,53.67
2022-11-03T09:54:27.790Z,59.17
2022-11-03T09:57:06.230Z,47.78
2022-11-03T09:59:35.422Z,54.33
2022-11-03T10:02:39.297Z,46.17
2022-11-03T10:05:11.295Z,47.83
2022-11-03T10:07:39.984Z,40.10
2022-11-03T10:10:16.516Z,42.45
2022-11-03T10:12:46.999Z,54.72
2022-11-03T10:15:17.878Z,56.83
2022-11-03T10:17:47.201Z,47.67
2022-11-03T10:20:18.618Z,52.40
2022-11-03T10:22:48.836Z,57.60
2022-11-03T10:25:39.574Z,45.03
2022-11-03T10:28:22.866Z,109.93
2022-11-03T10:31:11.156Z,69.43
2022-11-03T10:33:52.279Z,33.92
2022-11-03T10:36:25.745Z,30.65
2022-11-03T10:38:55.511Z,36.10
2022-11-03T10:41:30.430Z,38.13
2022-11-03T10:44:19.084Z,41.92
2022-11-03T10:47:01.568Z,39.13
2022-11-03T10:49:33.887Z,41.28
2022-11-03T10:52:29.818Z,38.35
2022-11-03T10:54:59.215Z,36.33
2022-11-03T10:57:29.660Z,37.22
2022-11-03T10:59:59.604Z,42.67
2022-11-03T11:02:32.250Z,41.37
2022-11-03T11:05:02.227Z,41.97
2022-11-03T11:07:34.049Z,44.70
2022-11-03T11:10:08.768Z,40.60
2022-11-03T11:12:36.259Z,46.03
2022-11-03T11:15:37.430Z,39.03
2022-11-03T11:18:06.781Z,44.67
2022-11-03T11:20:41.792Z,41.00
2022-11-03T11:23:29.891Z,42.67
2022-11-03T11:26:09.191Z,39.97
2022-11-03T11:29:09.906Z,41.97
2022-11-03T11:31:46.029Z,39.13
2022-11-03T11:34:18.146Z,37.55
2022-11-03T11:37:07.741Z,38.17
2022-11-03T11:39:44.369Z,37.67
2022-11-03T11:42:21.073Z,37.50
2022-11-03T11:44:58.270Z,38.42
2022-11-03T11:47:45.694Z,42.40
2022-11-03T11:50:19.619Z,47.40
2022-11-03T11:52:51.965Z,37.95
2022-11-03T11:55:31.517Z,39.33
2022-11-03T11:58:03.604Z,38.97
2022-11-03T12:00:35.985Z,38.55
2022-11-03T12:03:07.935Z,37.25
2022-11-03T12:05:36.688Z,34.67
2022-11-03T12:08:23.045Z,38.28
2022-11-03T12:10:56.433Z,41.67
2022-11-03T12:13:53.935Z,36.23
2022-11-03T12:16:39.619Z,37.13
2022-11-03T12:19:38.519Z,37.63
2022-11-03T12:22:09.407Z,40.05
2022-11-03T12:24:49.783Z,41.08
2022-11-03T12:27:25.548Z,46.33
2022-11-03T12:30:13.008Z,36.97
2022-11-03T12:32:42.060Z,39.60
2022-11-03T12:35:14.356Z,39.80
2022-11-03T12:37:42.978Z,41.03
2022-11-03T12:40:14.334Z,40.88
2022-11-03T12:42:45.134Z,43.22
2022-11-03T12:45:15.269Z,40.67
2022-11-03T12:47:45.109Z,45.67
2022-11-03T12:50:33.256Z,41.80
2022-11-03T12:53:01.721Z,44.40
2022-11-03T12:55:31.553Z,44.17
2022-11-03T12:58:01.752Z,45.65
2022-11-03T13:00:30.437Z,45.90
2022-11-03T13:03:06.721Z,40.30
2022-11-03T13:05:37.146Z,46.85
2022-11-03T13:08:06.279Z,47.58
2022-11-03T13:10:34.675Z,46.75
2022-11-03T13:13:03.695Z,50.30
2022-11-03T13:15:33.225Z,45.80
2022-11-03T13:18:16.324Z,56.15
2022-11-03T13:20:45.310Z,49.38
2022-11-03T13:23:17.475Z,50.92
2022-11-03T13:25:50.367Z,49.33
2022-11-03T13:28:18.376Z,49.55
2022-11-03T13:30:47.890Z,55.58
2022-11-03T13:33:16.751Z,52.10
2022-11-03T13:35:44.318Z,51.17
2022-11-03T13:38:12.018Z,55.03
2022-11-03T13:40:59.355Z,61.63
2022-11-03T13:43:29.579Z,58.45
2022-11-03T13:46:02.236Z,51.80
2022-11-03T13:49:23.423Z,53.17
2022-11-03T13:51:21.697Z,55.53
2022-11-03T13:59:30.094Z,48.47
2022-11-03T14:04:50.308Z,50.65
2022-11-03T14:07:17.947Z,44.67
2022-11-03T14:09:47.561Z,42.42
2022-11-03T14:12:31.564Z,39.40
2022-11-03T14:15:06.546Z,43.45
2022-11-03T14:17:36.193Z,43.80
2022-11-03T14:20:07.671Z,44.70
2022-11-03T14:22:35.754Z,39.75
2022-11-03T14:25:06.363Z,38.28
2022-11-03T14:27:34.789Z,41.50
2022-11-03T14:30:04.517Z,38.83
2022-11-03T14:32:32.811Z,44.20
2022-11-03T14:35:02.349Z,38.97
2022-11-03T14:37:33.138Z,37.70
2022-11-03T14:40:02.108Z,39.47
2022-11-03T14:42:29.723Z,36.80
2022-11-03T14:44:59.869Z,41.78
2022-11-03T14:47:31.796Z,35.97
2022-11-03T14:50:00.016Z,36.70
2022-11-03T14:52:28.893Z,37.97
2022-11-03T14:54:57.150Z,37.65
2022-11-03T14:57:26.543Z,37.25
2022-11-03T14:59:56.344Z,40.33
2022-11-03T15:02:25.323Z,43.85
2022-11-03T15:05:33.055Z,34.67
2022-11-03T15:08:03.316Z,46.17
2022-11-03T15:10:31.851Z,58.00
2022-11-03T15:13:00.762Z,47.05
2022-11-03T15:15:29.675Z,40.17
2022-11-03T15:18:02.810Z,38.47
2022-11-03T15:20:36.609Z,54.17
2022-11-03T15:26:06.414Z,40.63
2022-11-03T15:28:35.202Z,36.03
2022-11-03T15:31:05.687Z,42.42
2022-11-03T15:33:41.113Z,38.90
2022-11-03T15:36:10.413Z,39.25
2022-11-03T15:38:39.449Z,41.88
2022-11-03T15:41:16.260Z,40.22
2022-11-03T15:43:47.430Z,33.95
2022-11-03T15:46:19.000Z,44.60
2022-11-03T15:48:49.598Z,38.63
2022-11-03T15:51:18.379Z,37.72
2022-11-03T15:53:50.220Z,36.95
2022-11-03T15:56:20.577Z,34.88
2022-11-03T15:58:48.785Z,31.85
2022-11-03T16:01:19.054Z,33.75
2022-11-03T16:03:48.994Z,35.40
2022-11-03T16:06:17.744Z,34.28
2022-11-03T16:08:47.941Z,32.92
2022-11-03T16:11:16.760Z,34.80
2022-11-03T16:13:45.793Z,34.13
2022-11-03T16:16:13.478Z,38.17
2022-11-03T16:18:44.081Z,41.05
2022-11-03T16:21:13.086Z,42.25
2022-11-03T16:23:43.823Z,44.17
2022-11-03T16:26:11.344Z,46.10
2022-11-03T16:28:40.204Z,44.67
2022-11-03T16:31:09.118Z,45.03
2022-11-03T16:33:37.328Z,44.55
2022-11-03T16:36:05.618Z,42.92
2022-11-03T16:38:34.742Z,47.47
2022-11-03T16:41:05.607Z,48.00
2022-11-03T16:43:34.880Z,46.15
2022-11-03T16:46:04.906Z,46.55
2022-11-03T16:48:34.355Z,45.20
2022-11-03T16:51:04.186Z,48.78
2022-11-03T16:53:33.040Z,46.55
2022-11-03T16:56:01.099Z,40.90
2022-11-03T16:58:30.500Z,46.50
2022-11-03T17:00:58.753Z,45.22
2022-11-03T17:03:29.200Z,48.90
2022-11-03T17:05:59.132Z,46.35
2022-11-03T17:08:53.852Z,53.58
2022-11-03T17:11:36.920Z,53.72
2022-11-03T17:14:09.048Z,51.88
2022-11-03T17:16:38.947Z,59.70
2022-11-03T17:19:08.583Z,56.60
2022-11-03T17:21:37.723Z,55.05
2022-11-03T17:24:07.408Z,57.72
2022-11-03T17:26:51.947Z,53.45
2022-11-03T17:29:24.046Z,54.90
2022-11-03T17:31:56.605Z,56.65
2022-11-03T17:34:32.369Z,51.05
2022-11-03T17:37:02.213Z,48.85
2022-11-03T17:39:41.322Z,47.60
2022-11-03T17:42:24.666Z,52.92
2022-11-03T17:44:55.976Z,49.63
2022-11-03T17:47:29.682Z,50.60
2022-11-03T17:50:01.185Z,53.13
2022-11-03T17:52:32.992Z,48.50
2022-11-03T17:55:06.472Z,50.90
2022-11-03T17:57:38.300Z,45.67
2022-11-03T18:00:10.779Z,49.92
2022-11-03T18:02:40.945Z,46.15
2022-11-03T18:05:27.782Z,38.78
2022-11-03T18:08:00.531Z,48.38
2022-11-03T18:10:39.246Z,50.15
2022-11-03T18:13:16.789Z,52.50
2022-11-03T18:15:59.080Z,48.50
2022-11-03T18:18:44.355Z,49.60
2022-11-03T18:21:19.817Z,43.95
2022-11-03T18:23:48.821Z,43.20
2022-11-03T18:26:27.284Z,51.83
2022-11-03T18:28:57.787Z,44.50
2022-11-03T18:31:36.205Z,52.25
2022-11-03T18:34:09.603Z,51.25
2022-11-03T18:36:39.152Z,48.17
2022-11-03T18:39:16.908Z,47.58
2022-11-03T18:41:47.676Z,50.28
2022-11-03T18:44:19.717Z,52.80
2022-11-03T18:46:51.516Z,43.65
2022-11-03T18:49:21.740Z,52.38
2022-11-03T18:52:00.861Z,51.35
2022-11-03T18:54:33.968Z,48.25
2022-11-03T18:57:05.407Z,47.83
2022-11-03T18:59:38.690Z,46.95
2022-11-03T19:02:22.705Z,48.50
2022-11-03T19:07:38.280Z,44.72
2022-11-03T19:10:23.655Z,55.50
2022-11-03T19:12:54.720Z,55.20
2022-11-03T19:15:25.957Z,57.35
2022-11-03T19:17:58.277Z,49.60
2022-11-03T19:20:28.298Z,53.80
2022-11-03T19:22:57.754Z,47.65
2022-11-03T19:25:27.901Z,53.83
2022-11-03T19:27:56.865Z,52.17
2022-11-03T19:30:26.337Z,53.50
2022-11-03T19:32:56.505Z,54.75
2022-11-03T19:35:36.878Z,48.87
2022-11-03T19:38:14.716Z,52.13
2022-11-03T19:41:14.591Z,49.35
2022-11-03T19:43:44.388Z,52.35
2022-11-03T19:46:20.225Z,62.90
2022-11-03T19:48:51.481Z,52.83
2022-11-03T19:51:22.777Z,52.67
2022-11-03T19:53:55.251Z,52.90
2022-11-03T19:56:23.549Z,56.42
2022-11-03T19:58:55.636Z,58.67
2022-11-03T20:01:28.548Z,57.08
2022-11-03T20:04:00.244Z,53.95
2022-11-03T20:06:31.069Z,52.53
2022-11-03T20:09:04.414Z,51.80
2022-11-03T20:11:36.393Z,53.80
2022-11-03T20:14:06.781Z,52.67
2022-11-03T20:16:37.311Z,61.35
2022-11-03T20:19:10.230Z,52.20
2022-11-03T20:21:40.012Z,59.05
2022-11-03T20:24:13.152Z,55.78
2022-11-03T20:26:43.227Z,54.45
2022-11-03T20:29:15.325Z,47.92
2022-11-03T20:31:45.212Z,51.05
2022-11-03T20:34:15.697Z,54.63
2022-11-03T20:36:48.293Z,50.80
2022-11-03T20:39:22.170Z,49.35
2022-11-03T20:41:54.104Z,51.53
2022-11-03T20:44:25.072Z,49.58
2022-11-03T20:46:54.874Z,53.85
2022-11-03T20:49:34.095Z,48.35
2022-11-03T20:52:04.660Z,48.13
2022-11-03T20:54:35.929Z,52.78
2022-11-03T20:57:05.771Z,49.20
2022-11-03T20:59:38.862Z,41.17
2022-11-03T21:02:12.790Z,41.37
2022-11-03T21:04:45.785Z,42.45
2022-11-03T21:07:16.366Z,46.88
2022-11-03T21:09:45.025Z,44.65
2022-11-03T21:12:16.077Z,46.53
2022-11-03T21:15:04.910Z,39.97
2022-11-03T21:17:53.838Z,41.67
2022-11-03T21:20:22.051Z,45.90
2022-11-03T21:22:53.428Z,50.03
2022-11-03T21:25:24.599Z,43.95
2022-11-03T21:27:55.042Z,44.55
2022-11-03T21:30:26.094Z,41.75
2022-11-03T21:32:56.203Z,42.72
2022-11-03T21:35:27.821Z,42.97
2022-11-03T21:37:57.547Z,43.72
2022-11-03T21:40:26.163Z,45.28
2022-11-03T21:43:13.847Z,41.10
2022-11-03T21:45:44.902Z,43.35
2022-11-03T21:48:32.403Z,43.08
2022-11-03T21:51:20.409Z,44.28
2022-11-03T21:53:49.426Z,44.28
2022-11-03T21:56:18.423Z,39.08
2022-11-03T21:58:47.632Z,42.78
2022-11-03T22:01:17.383Z,42.22
2022-11-03T22:03:46.592Z,42.05
2022-11-03T22:06:14.585Z,38.60
2022-11-03T22:08:45.060Z,40.58
2022-11-03T22:11:24.844Z,37.13
2022-11-03T22:13:59.377Z,44.17
2022-11-03T22:16:39.735Z,40.93
2022-11-03T22:19:35.244Z,39.20
2022-11-03T22:22:30.722Z,39.50
2022-11-03T22:25:17.276Z,40.80
2022-11-03T22:27:47.737Z,43.03
2022-11-03T22:30:37.142Z,35.78
2022-11-03T22:33:05.728Z,37.50
2022-11-03T22:35:53.822Z,41.03
2022-11-03T22:38:45.182Z,45.30
2022-11-03T22:41:45.785Z,36.42
2022-11-03T22:44:33.012Z,38.83
2022-11-03T22:47:03.215Z,40.90
2022-11-03T22:49:32.875Z,39.75
2022-11-03T22:52:03.409Z,41.35
2022-11-03T22:54:33.075Z,37.00
2022-11-03T22:57:02.895Z,39.58
2022-11-03T22:59:36.667Z,38.70
2022-11-03T23:02:06.773Z,37.47
2022-11-03T23:04:37.711Z,34.38
2022-11-03T23:07:08.493Z,37.88
2022-11-03T23:09:38.039Z,33.63
2022-11-03T23:12:11.716Z,35.08
2022-11-03T23:15:00.466Z,31.70
2022-11-03T23:17:49.156Z,36.45
2022-11-03T23:20:38.066Z,34.95
2022-11-03T23:23:06.310Z,33.55
2022-11-03T23:25:34.873Z,32.58
2022-11-03T23:28:05.620Z,35.35
2022-11-03T23:30:35.452Z,32.28
2022-11-03T23:33:04.303Z,30.52
2022-11-03T23:35:34.245Z,32.83
2022-11-03T23:38:04.567Z,34.15
2022-11-03T23:40:35.177Z,34.15
2022-11-03T23:43:06.185Z,33.45
2022-11-03T23:45:55.013Z,32.08
2022-11-03T23:48:42.613Z,33.30
2022-11-03T23:51:17.476Z,35.65
2022-11-03T23:53:48.711Z,28.50
2022-11-03T23:56:38.640Z,33.08
2022-11-03T23:59:10.151Z,35.13
